sensor_id;sensor_type;location;lat;lon;timestamp;P1;durP1;ratioP1;P2;durP2;ratioP2
75297;SDS011;63896;45.990;18.688;2023-02-01T00:00:15;23.15;;;7.63;;
75297;SDS011;63896;45.990;18.688;2023-02-01T00:03:18;25.02;;;8.48;;
75297;SDS011;63896;45.990;18.688;2023-02-01T00:06:21;29.25;;;11.52;;
75297;SDS011;63896;45.990;18.688;2023-02-01T00:09:24;21.20;;;9.38;;
75297;SDS011;63896;45.990;18.688;2023-02-01T00:12:27;35.77;;;14.97;;
75297;SDS011;63896;45.990;18.688;2023-02-01T00:15:30;46.00;;;18.55;;
75297;SDS011;63896;45.990;18.688;2023-02-01T00:18:33;43.28;;;17.27;;
75297;SDS011;63896;45.990;18.688;2023-02-01T00:21:36;38.90;;;16.17;;
75297;SDS011;63896;45.990;18.688;2023-02-01T00:24:39;45.33;;;16.23;;
75297;SDS011;63896;45.990;18.688;2023-02-01T00:27:42;53.70;;;21.53;;
75297;SDS011;63896;45.990;18.688;2023-02-01T00:30:45;46.45;;;18.73;;
75297;SDS011;63896;45.990;18.688;2023-02-01T00:33:48;45.30;;;18.88;;
75297;SDS011;63896;45.990;18.688;2023-02-01T00:36:51;37.90;;;13.68;;
75297;SDS011;63896;45.990;18.688;2023-02-01T00:39:54;33.20;;;15.25;;
75297;SDS011;63896;45.990;18.688;2023-02-01T00:42:58;26.13;;;12.87;;
75297;SDS011;63896;45.990;18.688;2023-02-01T00:46:01;27.52;;;12.55;;
75297;SDS011;63896;45.990;18.688;2023-02-01T00:49:04;28.50;;;11.73;;
75297;SDS011;63896;45.990;18.688;2023-02-01T00:52:07;24.88;;;10.20;;
75297;SDS011;63896;45.990;18.688;2023-02-01T00:55:10;19.42;;;8.70;;
75297;SDS011;63896;45.990;18.688;2023-02-01T00:58:14;16.97;;;7.63;;
75297;SDS011;63896;45.990;18.688;2023-02-01T01:01:18;13.27;;;6.95;;
75297;SDS011;63896;45.990;18.688;2023-02-01T01:04:23;22.55;;;8.68;;
75297;SDS011;63896;45.990;18.688;2023-02-01T01:07:27;34.58;;;10.20;;
75297;SDS011;63896;45.990;18.688;2023-02-01T01:10:30;19.05;;;7.97;;
75297;SDS011;63896;45.990;18.688;2023-02-01T01:13:35;32.07;;;12.00;;
75297;SDS011;63896;45.990;18.688;2023-02-01T01:16:38;38.88;;;13.07;;
75297;SDS011;63896;45.990;18.688;2023-02-01T01:19:41;27.92;;;11.90;;
75297;SDS011;63896;45.990;18.688;2023-02-01T01:22:44;54.75;;;17.17;;
75297;SDS011;63896;45.990;18.688;2023-02-01T01:25:46;70.35;;;22.33;;
75297;SDS011;63896;45.990;18.688;2023-02-01T01:28:49;50.30;;;18.30;;
75297;SDS011;63896;45.990;18.688;2023-02-01T01:31:53;34.42;;;12.60;;
75297;SDS011;63896;45.990;18.688;2023-02-01T01:34:56;26.30;;;9.32;;
75297;SDS011;63896;45.990;18.688;2023-02-01T01:37:59;17.17;;;7.45;;
75297;SDS011;63896;45.990;18.688;2023-02-01T01:41:03;13.75;;;6.28;;
75297;SDS011;63896;45.990;18.688;2023-02-01T01:44:06;18.67;;;5.60;;
75297;SDS011;63896;45.990;18.688;2023-02-01T01:47:48;17.55;;;6.10;;
75297;SDS011;63896;45.990;18.688;2023-02-01T01:51:02;14.60;;;6.55;;
75297;SDS011;63896;45.990;18.688;2023-02-01T01:54:20;12.23;;;5.05;;
75297;SDS011;63896;45.990;18.688;2023-02-01T01:57:27;11.25;;;5.03;;
75297;SDS011;63896;45.990;18.688;2023-02-01T02:00:38;10.40;;;4.60;;
75297;SDS011;63896;45.990;18.688;2023-02-01T02:03:44;13.32;;;5.00;;
75297;SDS011;63896;45.990;18.688;2023-02-01T02:06:51;12.25;;;4.50;;
75297;SDS011;63896;45.990;18.688;2023-02-01T02:10:00;13.35;;;4.88;;
75297;SDS011;63896;45.990;18.688;2023-02-01T02:13:04;10.80;;;4.38;;
75297;SDS011;63896;45.990;18.688;2023-02-01T02:16:17;11.67;;;4.53;;
75297;SDS011;63896;45.990;18.688;2023-02-01T02:22:48;18.35;;;5.38;;
75297;SDS011;63896;45.990;18.688;2023-02-01T02:36:13;27.77;;;8.48;;
75297;SDS011;63896;45.990;18.688;2023-02-01T02:46:46;26.67;;;8.23;;
75297;SDS011;63896;45.990;18.688;2023-02-01T02:50:11;25.87;;;8.23;;
75297;SDS011;63896;45.990;18.688;2023-02-01T02:53:38;15.27;;;5.70;;
75297;SDS011;63896;45.990;18.688;2023-02-01T02:57:10;21.65;;;7.18;;
75297;SDS011;63896;45.990;18.688;2023-02-01T03:00:43;15.60;;;6.35;;
75297;SDS011;63896;45.990;18.688;2023-02-01T03:04:06;14.20;;;5.07;;
75297;SDS011;63896;45.990;18.688;2023-02-01T03:14:11;11.23;;;4.85;;
75297;SDS011;63896;45.990;18.688;2023-02-01T03:17:19;9.75;;;4.35;;
75297;SDS011;63896;45.990;18.688;2023-02-01T03:20:28;9.68;;;3.80;;
75297;SDS011;63896;45.990;18.688;2023-02-01T03:23:34;10.10;;;4.53;;
75297;SDS011;63896;45.990;18.688;2023-02-01T03:26:41;8.43;;;3.35;;
75297;SDS011;63896;45.990;18.688;2023-02-01T03:29:56;11.20;;;4.55;;
75297;SDS011;63896;45.990;18.688;2023-02-01T03:33:09;9.65;;;3.85;;
75297;SDS011;63896;45.990;18.688;2023-02-01T03:36:26;7.78;;;3.38;;
75297;SDS011;63896;45.990;18.688;2023-02-01T03:39:35;7.13;;;3.33;;
75297;SDS011;63896;45.990;18.688;2023-02-01T03:42:48;5.53;;;2.22;;
75297;SDS011;63896;45.990;18.688;2023-02-01T03:46:00;8.55;;;3.92;;
75297;SDS011;63896;45.990;18.688;2023-02-01T03:49:06;10.32;;;3.50;;
75297;SDS011;63896;45.990;18.688;2023-02-01T03:52:16;8.13;;;3.75;;
75297;SDS011;63896;45.990;18.688;2023-02-01T03:55:23;8.93;;;3.00;;
75297;SDS011;63896;45.990;18.688;2023-02-01T03:58:29;8.13;;;3.55;;
75297;SDS011;63896;45.990;18.688;2023-02-01T04:01:32;8.50;;;3.88;;
75297;SDS011;63896;45.990;18.688;2023-02-01T04:04:35;8.40;;;3.60;;
75297;SDS011;63896;45.990;18.688;2023-02-01T04:07:39;10.73;;;3.72;;
75297;SDS011;63896;45.990;18.688;2023-02-01T04:10:42;8.90;;;3.40;;
75297;SDS011;63896;45.990;18.688;2023-02-01T04:13:46;8.55;;;3.58;;
75297;SDS011;63896;45.990;18.688;2023-02-01T04:16:49;9.93;;;4.13;;
75297;SDS011;63896;45.990;18.688;2023-02-01T04:19:51;9.38;;;3.83;;
75297;SDS011;63896;45.990;18.688;2023-02-01T04:22:56;7.63;;;3.72;;
75297;SDS011;63896;45.990;18.688;2023-02-01T04:26:00;8.40;;;3.43;;
75297;SDS011;63896;45.990;18.688;2023-02-01T04:29:04;8.23;;;3.60;;
75297;SDS011;63896;45.990;18.688;2023-02-01T04:32:07;3.85;;;2.60;;
75297;SDS011;63896;45.990;18.688;2023-02-01T04:35:10;7.45;;;3.33;;
75297;SDS011;63896;45.990;18.688;2023-02-01T04:38:14;8.98;;;3.88;;
75297;SDS011;63896;45.990;18.688;2023-02-01T04:41:17;7.90;;;3.30;;
75297;SDS011;63896;45.990;18.688;2023-02-01T04:44:21;8.40;;;3.92;;
75297;SDS011;63896;45.990;18.688;2023-02-01T04:47:28;11.20;;;3.90;;
75297;SDS011;63896;45.990;18.688;2023-02-01T04:50:31;9.65;;;4.50;;
75297;SDS011;63896;45.990;18.688;2023-02-01T04:53:34;9.57;;;4.32;;
75297;SDS011;63896;45.990;18.688;2023-02-01T04:56:37;9.63;;;3.87;;
75297;SDS011;63896;45.990;18.688;2023-02-01T04:59:40;10.95;;;4.43;;
75297;SDS011;63896;45.990;18.688;2023-02-01T05:02:43;10.18;;;4.68;;
75297;SDS011;63896;45.990;18.688;2023-02-01T05:05:49;10.35;;;4.32;;
75297;SDS011;63896;45.990;18.688;2023-02-01T05:08:52;11.90;;;4.40;;
75297;SDS011;63896;45.990;18.688;2023-02-01T05:11:55;10.53;;;4.63;;
75297;SDS011;63896;45.990;18.688;2023-02-01T05:15:16;16.70;;;5.25;;
75297;SDS011;63896;45.990;18.688;2023-02-01T05:18:19;11.75;;;4.85;;
75297;SDS011;63896;45.990;18.688;2023-02-01T05:21:22;10.93;;;5.30;;
75297;SDS011;63896;45.990;18.688;2023-02-01T05:24:25;10.32;;;5.13;;
75297;SDS011;63896;45.990;18.688;2023-02-01T05:27:29;11.50;;;5.13;;
75297;SDS011;63896;45.990;18.688;2023-02-01T05:30:33;11.20;;;5.47;;
75297;SDS011;63896;45.990;18.688;2023-02-01T05:33:37;13.68;;;5.75;;
75297;SDS011;63896;45.990;18.688;2023-02-01T05:36:40;9.63;;;4.90;;
75297;SDS011;63896;45.990;18.688;2023-02-01T05:39:43;13.13;;;5.55;;
75297;SDS011;63896;45.990;18.688;2023-02-01T05:42:46;14.40;;;5.63;;
75297;SDS011;63896;45.990;18.688;2023-02-01T05:45:49;11.75;;;5.80;;
75297;SDS011;63896;45.990;18.688;2023-02-01T05:48:54;13.05;;;5.57;;
75297;SDS011;63896;45.990;18.688;2023-02-01T05:51:57;12.00;;;5.38;;
75297;SDS011;63896;45.990;18.688;2023-02-01T05:55:01;14.65;;;5.53;;
75297;SDS011;63896;45.990;18.688;2023-02-01T05:58:05;13.70;;;5.30;;
75297;SDS011;63896;45.990;18.688;2023-02-01T06:01:08;11.23;;;5.15;;
75297;SDS011;63896;45.990;18.688;2023-02-01T06:04:10;11.75;;;5.43;;
75297;SDS011;63896;45.990;18.688;2023-02-01T06:07:14;11.07;;;4.35;;
75297;SDS011;63896;45.990;18.688;2023-02-01T06:10:17;10.65;;;5.10;;
75297;SDS011;63896;45.990;18.688;2023-02-01T06:13:21;10.40;;;5.17;;
75297;SDS011;63896;45.990;18.688;2023-02-01T06:16:24;15.48;;;5.70;;
75297;SDS011;63896;45.990;18.688;2023-02-01T06:19:27;13.48;;;5.53;;
75297;SDS011;63896;45.990;18.688;2023-02-01T06:22:29;21.35;;;7.43;;
75297;SDS011;63896;45.990;18.688;2023-02-01T06:25:32;28.88;;;9.10;;
75297;SDS011;63896;45.990;18.688;2023-02-01T06:28:35;31.40;;;9.93;;
75297;SDS011;63896;45.990;18.688;2023-02-01T06:31:38;33.17;;;12.02;;
75297;SDS011;63896;45.990;18.688;2023-02-01T06:34:41;31.83;;;11.85;;
75297;SDS011;63896;45.990;18.688;2023-02-01T06:37:44;24.58;;;9.70;;
75297;SDS011;63896;45.990;18.688;2023-02-01T06:40:51;29.35;;;11.48;;
75297;SDS011;63896;45.990;18.688;2023-02-01T06:43:57;42.60;;;14.37;;
75297;SDS011;63896;45.990;18.688;2023-02-01T06:47:00;37.17;;;12.40;;
75297;SDS011;63896;45.990;18.688;2023-02-01T06:50:05;35.42;;;12.88;;
75297;SDS011;63896;45.990;18.688;2023-02-01T06:53:10;36.05;;;11.65;;
75297;SDS011;63896;45.990;18.688;2023-02-01T06:56:12;30.88;;;12.05;;
75297;SDS011;63896;45.990;18.688;2023-02-01T06:59:15;36.37;;;14.63;;
75297;SDS011;63896;45.990;18.688;2023-02-01T07:02:19;39.60;;;15.45;;
75297;SDS011;63896;45.990;18.688;2023-02-01T07:05:22;41.55;;;17.25;;
75297;SDS011;63896;45.990;18.688;2023-02-01T07:08:26;36.63;;;14.77;;
75297;SDS011;63896;45.990;18.688;2023-02-01T07:11:30;35.15;;;13.25;;
75297;SDS011;63896;45.990;18.688;2023-02-01T07:14:34;30.73;;;11.60;;
75297;SDS011;63896;45.990;18.688;2023-02-01T07:17:37;30.73;;;12.13;;
75297;SDS011;63896;45.990;18.688;2023-02-01T07:20:40;24.13;;;10.68;;
75297;SDS011;63896;45.990;18.688;2023-02-01T07:23:43;26.83;;;10.18;;
75297;SDS011;63896;45.990;18.688;2023-02-01T07:26:46;20.17;;;8.15;;
75297;SDS011;63896;45.990;18.688;2023-02-01T07:29:50;15.93;;;7.30;;
75297;SDS011;63896;45.990;18.688;2023-02-01T07:32:53;19.17;;;8.00;;
75297;SDS011;63896;45.990;18.688;2023-02-01T07:35:56;20.58;;;8.30;;
75297;SDS011;63896;45.990;18.688;2023-02-01T07:38:59;26.55;;;8.85;;
75297;SDS011;63896;45.990;18.688;2023-02-01T07:42:02;25.95;;;8.45;;
75297;SDS011;63896;45.990;18.688;2023-02-01T07:45:05;24.47;;;8.20;;
75297;SDS011;63896;45.990;18.688;2023-02-01T07:48:23;25.48;;;9.35;;
75297;SDS011;63896;45.990;18.688;2023-02-01T07:51:26;39.40;;;10.75;;
75297;SDS011;63896;45.990;18.688;2023-02-01T07:54:29;31.55;;;9.65;;
75297;SDS011;63896;45.990;18.688;2023-02-01T07:57:32;27.42;;;8.00;;
75297;SDS011;63896;45.990;18.688;2023-02-01T08:00:36;22.03;;;8.03;;
75297;SDS011;63896;45.990;18.688;2023-02-01T08:04:01;28.60;;;11.88;;
75297;SDS011;63896;45.990;18.688;2023-02-01T08:07:05;37.60;;;14.18;;
75297;SDS011;63896;45.990;18.688;2023-02-01T08:10:08;44.10;;;15.30;;
75297;SDS011;63896;45.990;18.688;2023-02-01T08:13:13;50.65;;;16.52;;
75297;SDS011;63896;45.990;18.688;2023-02-01T08:16:17;47.30;;;16.10;;
75297;SDS011;63896;45.990;18.688;2023-02-01T08:19:21;29.17;;;12.27;;
75297;SDS011;63896;45.990;18.688;2023-02-01T08:22:24;25.20;;;10.35;;
75297;SDS011;63896;45.990;18.688;2023-02-01T08:25:26;24.85;;;10.00;;
75297;SDS011;63896;45.990;18.688;2023-02-01T08:28:30;26.48;;;11.48;;
75297;SDS011;63896;45.990;18.688;2023-02-01T08:31:34;23.00;;;10.47;;
75297;SDS011;63896;45.990;18.688;2023-02-01T08:34:37;23.83;;;10.00;;
75297;SDS011;63896;45.990;18.688;2023-02-01T08:37:40;19.13;;;8.82;;
75297;SDS011;63896;45.990;18.688;2023-02-01T08:40:43;21.10;;;10.05;;
75297;SDS011;63896;45.990;18.688;2023-02-01T08:43:46;24.38;;;9.50;;
75297;SDS011;63896;45.990;18.688;2023-02-01T08:46:50;19.23;;;8.67;;
75297;SDS011;63896;45.990;18.688;2023-02-01T08:49:53;20.58;;;9.00;;
75297;SDS011;63896;45.990;18.688;2023-02-01T08:52:56;21.48;;;9.35;;
75297;SDS011;63896;45.990;18.688;2023-02-01T08:55:59;26.50;;;9.55;;
75297;SDS011;63896;45.990;18.688;2023-02-01T08:59:03;24.50;;;9.45;;
75297;SDS011;63896;45.990;18.688;2023-02-01T09:02:08;26.10;;;9.87;;
75297;SDS011;63896;45.990;18.688;2023-02-01T09:05:16;29.02;;;9.40;;
75297;SDS011;63896;45.990;18.688;2023-02-01T09:08:21;22.27;;;9.27;;
75297;SDS011;63896;45.990;18.688;2023-02-01T09:11:24;22.30;;;9.23;;
75297;SDS011;63896;45.990;18.688;2023-02-01T09:14:28;31.85;;;10.40;;
75297;SDS011;63896;45.990;18.688;2023-02-01T09:17:31;26.53;;;10.50;;
75297;SDS011;63896;45.990;18.688;2023-02-01T09:20:34;30.70;;;10.60;;
75297;SDS011;63896;45.990;18.688;2023-02-01T09:23:39;31.58;;;11.45;;
75297;SDS011;63896;45.990;18.688;2023-02-01T09:26:42;39.22;;;10.60;;
75297;SDS011;63896;45.990;18.688;2023-02-01T09:29:45;31.65;;;10.25;;
75297;SDS011;63896;45.990;18.688;2023-02-01T09:32:52;20.10;;;9.30;;
75297;SDS011;63896;45.990;18.688;2023-02-01T09:35:56;21.52;;;9.52;;
75297;SDS011;63896;45.990;18.688;2023-02-01T09:39:03;24.42;;;9.27;;
75297;SDS011;63896;45.990;18.688;2023-02-01T09:49:43;27.77;;;10.17;;
75297;SDS011;63896;45.990;18.688;2023-02-01T09:52:40;22.90;;;8.73;;
75297;SDS011;63896;45.990;18.688;2023-02-01T09:55:49;20.33;;;8.50;;
75297;SDS011;63896;45.990;18.688;2023-02-01T09:59:22;20.52;;;8.45;;
75297;SDS011;63896;45.990;18.688;2023-02-01T10:02:29;23.45;;;9.10;;
75297;SDS011;63896;45.990;18.688;2023-02-01T10:05:51;30.27;;;10.80;;
75297;SDS011;63896;45.990;18.688;2023-02-01T10:16:07;26.25;;;10.05;;
75297;SDS011;63896;45.990;18.688;2023-02-01T10:22:47;24.67;;;10.87;;
75297;SDS011;63896;45.990;18.688;2023-02-01T10:26:28;17.02;;;7.78;;
75297;SDS011;63896;45.990;18.688;2023-02-01T10:29:37;15.50;;;8.32;;
75297;SDS011;63896;45.990;18.688;2023-02-01T10:32:42;16.48;;;8.50;;
75297;SDS011;63896;45.990;18.688;2023-02-01T10:35:46;14.60;;;8.20;;
75297;SDS011;63896;45.990;18.688;2023-02-01T10:38:52;15.07;;;7.20;;
75297;SDS011;63896;45.990;18.688;2023-02-01T10:41:56;14.60;;;7.05;;
75297;SDS011;63896;45.990;18.688;2023-02-01T10:44:59;10.25;;;5.65;;
75297;SDS011;63896;45.990;18.688;2023-02-01T10:48:06;12.63;;;5.97;;
75297;SDS011;63896;45.990;18.688;2023-02-01T10:51:16;12.07;;;5.78;;
75297;SDS011;63896;45.990;18.688;2023-02-01T10:54:36;14.80;;;6.57;;
75297;SDS011;63896;45.990;18.688;2023-02-01T10:57:53;14.38;;;6.38;;
75297;SDS011;63896;45.990;18.688;2023-02-01T11:01:08;17.33;;;7.18;;
75297;SDS011;63896;45.990;18.688;2023-02-01T11:04:21;15.32;;;7.03;;
75297;SDS011;63896;45.990;18.688;2023-02-01T11:07:28;15.07;;;7.38;;
75297;SDS011;63896;45.990;18.688;2023-02-01T11:10:39;15.77;;;7.37;;
75297;SDS011;63896;45.990;18.688;2023-02-01T11:13:43;15.13;;;7.15;;
75297;SDS011;63896;45.990;18.688;2023-02-01T11:16:48;14.35;;;7.45;;
75297;SDS011;63896;45.990;18.688;2023-02-01T11:20:32;11.23;;;6.20;;
75297;SDS011;63896;45.990;18.688;2023-02-01T11:23:23;12.43;;;6.72;;
75297;SDS011;63896;45.990;18.688;2023-02-01T11:26:28;15.83;;;7.70;;
75297;SDS011;63896;45.990;18.688;2023-02-01T11:29:36;11.52;;;6.68;;
75297;SDS011;63896;45.990;18.688;2023-02-01T11:32:42;14.55;;;7.15;;
75297;SDS011;63896;45.990;18.688;2023-02-01T11:35:44;13.15;;;7.53;;
75297;SDS011;63896;45.990;18.688;2023-02-01T11:38:54;13.70;;;7.50;;
75297;SDS011;63896;45.990;18.688;2023-02-01T11:42:17;14.00;;;7.27;;
75297;SDS011;63896;45.990;18.688;2023-02-01T11:45:24;16.00;;;6.97;;
75297;SDS011;63896;45.990;18.688;2023-02-01T11:48:37;16.77;;;6.60;;
75297;SDS011;63896;45.990;18.688;2023-02-01T12:12:08;15.52;;;6.25;;
75297;SDS011;63896;45.990;18.688;2023-02-01T12:22:08;20.10;;;10.13;;
75297;SDS011;63896;45.990;18.688;2023-02-01T12:29:03;23.65;;;11.45;;
75297;SDS011;63896;45.990;18.688;2023-02-01T12:42:31;17.38;;;9.18;;
75297;SDS011;63896;45.990;18.688;2023-02-01T12:45:49;22.60;;;10.32;;
75297;SDS011;63896;45.990;18.688;2023-02-01T12:52:21;19.90;;;9.80;;
75297;SDS011;63896;45.990;18.688;2023-02-01T12:58:45;20.80;;;10.68;;
75297;SDS011;63896;45.990;18.688;2023-02-01T13:08:36;20.80;;;9.65;;
75297;SDS011;63896;45.990;18.688;2023-02-01T13:11:44;21.73;;;8.85;;
75297;SDS011;63896;45.990;18.688;2023-02-01T13:14:52;21.55;;;9.77;;
75297;SDS011;63896;45.990;18.688;2023-02-01T13:18:00;23.73;;;10.32;;
75297;SDS011;63896;45.990;18.688;2023-02-01T13:21:14;19.80;;;9.73;;
75297;SDS011;63896;45.990;18.688;2023-02-01T13:27:28;17.15;;;9.30;;
75297;SDS011;63896;45.990;18.688;2023-02-01T13:30:43;21.70;;;10.32;;
75297;SDS011;63896;45.990;18.688;2023-02-01T13:44:11;22.58;;;12.02;;
75297;SDS011;63896;45.990;18.688;2023-02-01T13:47:43;21.33;;;9.88;;
75297;SDS011;63896;45.990;18.688;2023-02-01T13:50:49;25.80;;;11.73;;
75297;SDS011;63896;45.990;18.688;2023-02-01T13:53:54;24.47;;;11.50;;
75297;SDS011;63896;45.990;18.688;2023-02-01T13:56:58;33.97;;;14.68;;
75297;SDS011;63896;45.990;18.688;2023-02-01T14:00:08;28.27;;;13.95;;
75297;SDS011;63896;45.990;18.688;2023-02-01T14:06:49;32.00;;;13.18;;
75297;SDS011;63896;45.990;18.688;2023-02-01T14:09:55;35.30;;;13.73;;
75297;SDS011;63896;45.990;18.688;2023-02-01T14:13:04;37.42;;;15.23;;
75297;SDS011;63896;45.990;18.688;2023-02-01T14:16:15;41.15;;;16.63;;
75297;SDS011;63896;45.990;18.688;2023-02-01T14:19:26;37.50;;;16.15;;
75297;SDS011;63896;45.990;18.688;2023-02-01T14:22:32;41.45;;;17.17;;
75297;SDS011;63896;45.990;18.688;2023-02-01T14:25:36;43.80;;;19.90;;
75297;SDS011;63896;45.990;18.688;2023-02-01T14:28:50;49.90;;;21.90;;
75297;SDS011;63896;45.990;18.688;2023-02-01T14:32:06;37.53;;;17.27;;
75297;SDS011;63896;45.990;18.688;2023-02-01T14:35:19;33.90;;;18.00;;
75297;SDS011;63896;45.990;18.688;2023-02-01T14:38:24;34.92;;;18.10;;
75297;SDS011;63896;45.990;18.688;2023-02-01T14:41:29;38.40;;;17.27;;
75297;SDS011;63896;45.990;18.688;2023-02-01T14:44:35;38.75;;;17.92;;
75297;SDS011;63896;45.990;18.688;2023-02-01T14:47:39;39.60;;;16.27;;
75297;SDS011;63896;45.990;18.688;2023-02-01T14:50:43;43.75;;;16.35;;
75297;SDS011;63896;45.990;18.688;2023-02-01T14:53:49;34.42;;;16.08;;
75297;SDS011;63896;45.990;18.688;2023-02-01T14:56:53;31.83;;;15.23;;
75297;SDS011;63896;45.990;18.688;2023-02-01T15:00:05;30.70;;;15.73;;
75297;SDS011;63896;45.990;18.688;2023-02-01T15:06:45;33.90;;;14.23;;
75297;SDS011;63896;45.990;18.688;2023-02-01T15:09:53;45.40;;;18.45;;
75297;SDS011;63896;45.990;18.688;2023-02-01T15:13:00;26.07;;;12.53;;
75297;SDS011;63896;45.990;18.688;2023-02-01T15:19:14;16.15;;;7.03;;
75297;SDS011;63896;45.990;18.688;2023-02-01T15:22:17;14.27;;;6.80;;
75297;SDS011;63896;45.990;18.688;2023-02-01T15:25:23;18.73;;;7.72;;
75297;SDS011;63896;45.990;18.688;2023-02-01T15:28:28;17.90;;;7.43;;
75297;SDS011;63896;45.990;18.688;2023-02-01T15:31:35;13.38;;;5.85;;
75297;SDS011;63896;45.990;18.688;2023-02-01T15:34:49;13.27;;;5.38;;
75297;SDS011;63896;45.990;18.688;2023-02-01T15:37:52;12.05;;;5.53;;
75297;SDS011;63896;45.990;18.688;2023-02-01T15:40:55;13.43;;;6.00;;
75297;SDS011;63896;45.990;18.688;2023-02-01T15:44:18;12.13;;;6.57;;
75297;SDS011;63896;45.990;18.688;2023-02-01T15:47:26;15.35;;;7.05;;
75297;SDS011;63896;45.990;18.688;2023-02-01T15:50:33;12.30;;;6.05;;
75297;SDS011;63896;45.990;18.688;2023-02-01T15:53:35;15.75;;;7.07;;
75297;SDS011;63896;45.990;18.688;2023-02-01T15:56:41;14.57;;;7.00;;
75297;SDS011;63896;45.990;18.688;2023-02-01T15:59:44;13.17;;;6.50;;
75297;SDS011;63896;45.990;18.688;2023-02-01T16:02:57;13.18;;;6.55;;
75297;SDS011;63896;45.990;18.688;2023-02-01T16:06:06;14.60;;;6.82;;
75297;SDS011;63896;45.990;18.688;2023-02-01T16:09:12;12.32;;;5.93;;
75297;SDS011;63896;45.990;18.688;2023-02-01T16:12:50;14.65;;;6.43;;
75297;SDS011;63896;45.990;18.688;2023-02-01T16:15:45;12.47;;;5.37;;
75297;SDS011;63896;45.990;18.688;2023-02-01T16:18:49;12.30;;;5.90;;
75297;SDS011;63896;45.990;18.688;2023-02-01T16:21:52;13.60;;;6.82;;
75297;SDS011;63896;45.990;18.688;2023-02-01T16:24:55;13.07;;;6.28;;
75297;SDS011;63896;45.990;18.688;2023-02-01T16:27:58;14.52;;;6.90;;
75297;SDS011;63896;45.990;18.688;2023-02-01T16:31:01;14.63;;;6.90;;
75297;SDS011;63896;45.990;18.688;2023-02-01T16:34:04;12.68;;;6.30;;
75297;SDS011;63896;45.990;18.688;2023-02-01T16:37:11;15.20;;;6.88;;
75297;SDS011;63896;45.990;18.688;2023-02-01T16:40:16;12.38;;;6.78;;
75297;SDS011;63896;45.990;18.688;2023-02-01T16:43:21;13.68;;;6.97;;
75297;SDS011;63896;45.990;18.688;2023-02-01T16:46:26;17.40;;;8.13;;
75297;SDS011;63896;45.990;18.688;2023-02-01T16:49:34;18.83;;;9.85;;
75297;SDS011;63896;45.990;18.688;2023-02-01T16:52:37;61.25;;;20.00;;
75297;SDS011;63896;45.990;18.688;2023-02-01T16:55:42;85.15;;;32.40;;
75297;SDS011;63896;45.990;18.688;2023-02-01T16:58:46;108.13;;;40.22;;
75297;SDS011;63896;45.990;18.688;2023-02-01T17:01:49;82.47;;;32.40;;
75297;SDS011;63896;45.990;18.688;2023-02-01T17:04:52;76.65;;;32.22;;
75297;SDS011;63896;45.990;18.688;2023-02-01T17:07:56;73.82;;;32.03;;
75297;SDS011;63896;45.990;18.688;2023-02-01T17:11:06;69.10;;;32.05;;
75297;SDS011;63896;45.990;18.688;2023-02-01T17:17:21;63.57;;;29.73;;
75297;SDS011;63896;45.990;18.688;2023-02-01T17:20:40;84.80;;;36.80;;
75297;SDS011;63896;45.990;18.688;2023-02-01T17:23:44;93.65;;;42.05;;
75297;SDS011;63896;45.990;18.688;2023-02-01T17:26:48;129.20;;;52.75;;
75297;SDS011;63896;45.990;18.688;2023-02-01T17:29:53;169.57;;;65.70;;
75297;SDS011;63896;45.990;18.688;2023-02-01T17:32:58;158.20;;;66.23;;
75297;SDS011;63896;45.990;18.688;2023-02-01T17:36:18;193.95;;;80.40;;
75297;SDS011;63896;45.990;18.688;2023-02-01T17:39:21;197.75;;;78.03;;
75297;SDS011;63896;45.990;18.688;2023-02-01T17:42:43;196.93;;;76.05;;
75297;SDS011;63896;45.990;18.688;2023-02-01T17:45:56;207.75;;;81.63;;
75297;SDS011;63896;45.990;18.688;2023-02-01T17:49:02;234.13;;;89.60;;
75297;SDS011;63896;45.990;18.688;2023-02-01T17:52:08;215.10;;;81.30;;
75297;SDS011;63896;45.990;18.688;2023-02-01T17:55:19;140.77;;;55.03;;
75297;SDS011;63896;45.990;18.688;2023-02-01T17:58:25;123.38;;;49.80;;
75297;SDS011;63896;45.990;18.688;2023-02-01T18:01:28;188.40;;;78.13;;
75297;SDS011;63896;45.990;18.688;2023-02-01T18:04:31;191.10;;;82.10;;
75297;SDS011;63896;45.990;18.688;2023-02-01T18:07:37;218.32;;;96.38;;
75297;SDS011;63896;45.990;18.688;2023-02-01T18:10:40;183.10;;;86.40;;
75297;SDS011;63896;45.990;18.688;2023-02-01T18:13:44;180.75;;;83.20;;
75297;SDS011;63896;45.990;18.688;2023-02-01T18:16:48;148.95;;;64.93;;
75297;SDS011;63896;45.990;18.688;2023-02-01T18:19:51;141.30;;;57.10;;
75297;SDS011;63896;45.990;18.688;2023-02-01T18:22:55;129.38;;;53.72;;
75297;SDS011;63896;45.990;18.688;2023-02-01T18:25:59;154.55;;;67.95;;
75297;SDS011;63896;45.990;18.688;2023-02-01T18:29:02;132.07;;;54.53;;
75297;SDS011;63896;45.990;18.688;2023-02-01T18:32:07;103.63;;;44.35;;
75297;SDS011;63896;45.990;18.688;2023-02-01T18:35:19;55.00;;;23.67;;
75297;SDS011;63896;45.990;18.688;2023-02-01T18:38:24;48.15;;;22.15;;
75297;SDS011;63896;45.990;18.688;2023-02-01T18:41:27;46.53;;;23.10;;
75297;SDS011;63896;45.990;18.688;2023-02-01T18:44:30;46.72;;;24.27;;
75297;SDS011;63896;45.990;18.688;2023-02-01T18:47:33;47.15;;;22.77;;
75297;SDS011;63896;45.990;18.688;2023-02-01T18:50:37;40.13;;;20.77;;
75297;SDS011;63896;45.990;18.688;2023-02-01T18:53:42;42.15;;;19.90;;
75297;SDS011;63896;45.990;18.688;2023-02-01T18:56:47;46.70;;;22.42;;
75297;SDS011;63896;45.990;18.688;2023-02-01T18:59:49;44.60;;;22.77;;
75297;SDS011;63896;45.990;18.688;2023-02-01T19:02:52;48.70;;;21.92;;
75297;SDS011;63896;45.990;18.688;2023-02-01T19:05:56;43.20;;;19.30;;
75297;SDS011;63896;45.990;18.688;2023-02-01T19:08:59;36.72;;;17.13;;
75297;SDS011;63896;45.990;18.688;2023-02-01T19:12:02;43.00;;;18.98;;
75297;SDS011;63896;45.990;18.688;2023-02-01T19:15:07;39.25;;;17.88;;
75297;SDS011;63896;45.990;18.688;2023-02-01T19:18:14;40.50;;;18.73;;
75297;SDS011;63896;45.990;18.688;2023-02-01T19:21:21;41.00;;;16.13;;
75297;SDS011;63896;45.990;18.688;2023-02-01T19:24:24;44.95;;;17.40;;
75297;SDS011;63896;45.990;18.688;2023-02-01T19:27:29;43.60;;;17.48;;
75297;SDS011;63896;45.990;18.688;2023-02-01T19:30:32;36.22;;;16.08;;
75297;SDS011;63896;45.990;18.688;2023-02-01T19:33:35;36.35;;;17.05;;
75297;SDS011;63896;45.990;18.688;2023-02-01T19:36:38;37.47;;;17.03;;
75297;SDS011;63896;45.990;18.688;2023-02-01T19:39:45;40.92;;;15.60;;
75297;SDS011;63896;45.990;18.688;2023-02-01T19:42:48;33.33;;;14.43;;
75297;SDS011;63896;45.990;18.688;2023-02-01T19:45:54;27.20;;;12.80;;
75297;SDS011;63896;45.990;18.688;2023-02-01T19:48:59;26.80;;;12.23;;
75297;SDS011;63896;45.990;18.688;2023-02-01T19:52:02;31.73;;;12.57;;
75297;SDS011;63896;45.990;18.688;2023-02-01T19:55:05;31.20;;;14.43;;
75297;SDS011;63896;45.990;18.688;2023-02-01T19:58:09;39.60;;;15.32;;
75297;SDS011;63896;45.990;18.688;2023-02-01T20:01:12;39.38;;;14.90;;
75297;SDS011;63896;45.990;18.688;2023-02-01T20:04:16;44.08;;;17.67;;
75297;SDS011;63896;45.990;18.688;2023-02-01T20:07:19;41.00;;;15.93;;
75297;SDS011;63896;45.990;18.688;2023-02-01T20:10:23;36.10;;;14.57;;